createdAt,value
2023-04-22T00:00:57.562Z,949.1912
2023-04-22T00:01:58.814Z,949.1994
2023-04-22T00:03:00.234Z,949.1871
2023-04-22T00:04:01.786Z,949.1659
2023-04-22T00:05:03.495Z,949.1577
2023-04-22T00:06:04.874Z,949.1429
2023-04-22T00:07:06.102Z,949.1271
2023-04-22T00:08:07.370Z,949.1100
2023-04-22T00:09:08.631Z,949.1064
2023-04-22T00:10:09.880Z,949.1082
2023-04-22T00:11:11.101Z,949.1241
2023-04-22T00:12:12.343Z,949.1335
2023-04-22T00:13:13.612Z,949.1312
2023-04-22T00:14:14.839Z,949.1276
2023-04-22T00:15:16.150Z,949.1158
2023-04-22T00:16:17.509Z,949.1129
2023-04-22T00:17:18.832Z,949.1147
2023-04-22T00:18:20.038Z,949.1176
2023-04-22T00:19:21.289Z,949.1265
2023-04-22T00:20:22.533Z,949.1271
2023-04-22T00:21:23.773Z,949.1282
2023-04-22T00:22:25.049Z,949.1276
2023-04-22T00:23:26.287Z,949.1218
2023-04-22T00:24:27.481Z,949.1200
2023-04-22T00:25:28.773Z,949.1182
2023-04-22T00:26:29.978Z,949.1158
2023-04-22T00:27:31.269Z,949.1100
2023-04-22T00:28:32.485Z,949.1024
2023-04-22T00:29:33.738Z,949.0818
2023-04-22T00:30:35.000Z,949.0629
2023-04-22T00:31:36.375Z,949.0388
2023-04-22T00:32:37.693Z,949.0224
2023-04-22T00:33:38.908Z,949.0018
2023-04-22T00:34:40.257Z,948.9929
2023-04-22T00:35:41.470Z,948.9858
2023-04-22T00:36:42.690Z,948.9876
2023-04-22T00:37:43.888Z,948.9776
2023-04-22T00:38:45.313Z,948.9735
2023-04-22T00:39:46.610Z,948.9871
2023-04-22T00:40:47.849Z,948.9841
2023-04-22T00:41:49.079Z,948.9747
2023-04-22T00:42:50.317Z,948.9536
2023-04-22T00:43:51.547Z,948.9382
2023-04-22T00:44:52.787Z,948.9235
2023-04-22T00:45:54.058Z,948.9194
2023-04-22T00:46:55.369Z,948.9135
2023-04-22T00:47:56.688Z,948.9106
2023-04-22T00:48:57.900Z,948.9235
2023-04-22T00:49:59.129Z,948.9636
2023-04-22T00:51:00.412Z,949.0006
2023-04-22T00:52:01.725Z,949.0259
2023-04-22T00:53:02.948Z,949.0511
2023-04-22T00:54:04.143Z,949.0712
2023-04-22T00:55:05.381Z,949.0776
2023-04-22T00:56:06.889Z,949.0735
2023-04-22T00:57:08.138Z,949.0659
2023-04-22T00:58:09.376Z,949.0753
2023-04-22T00:59:10.596Z,949.0742
2023-04-22T01:00:11.855Z,949.0818
2023-04-22T01:01:13.122Z,949.0923
2023-04-22T01:02:14.523Z,949.0941
2023-04-22T01:03:15.956Z,949.1094
2023-04-22T01:04:17.421Z,949.1259
2023-04-22T01:05:18.755Z,949.1459
2023-04-22T01:06:19.989Z,949.1570
2023-04-22T01:07:21.237Z,949.1523
2023-04-22T01:08:22.451Z,949.1530
2023-04-22T01:09:23.705Z,949.1664
2023-04-22T01:10:24.953Z,949.1694
2023-04-22T01:11:26.212Z,949.1488
2023-04-22T01:12:27.448Z,949.1212
2023-04-22T01:13:28.772Z,949.0776
2023-04-22T01:14:30.028Z,949.0394
2023-04-22T01:15:31.508Z,949.0276
2023-04-22T01:16:32.835Z,949.0206
2023-04-22T01:17:34.135Z,949.0194
2023-04-22T01:18:35.375Z,949.0159
2023-04-22T01:19:36.828Z,949.0253
2023-04-22T01:20:38.203Z,949.0253
2023-04-22T01:21:39.417Z,949.0189
2023-04-22T01:22:40.650Z,949.0082
2023-04-22T01:23:41.864Z,949.0018
2023-04-22T01:24:43.104Z,949.0042
2023-04-22T01:25:44.369Z,949.0094
2023-04-22T01:26:45.591Z,948.9900
2023-04-22T01:27:47.100Z,948.9724
2023-04-22T01:28:48.364Z,948.9612
2023-04-22T01:29:49.672Z,948.9536
2023-04-22T01:30:50.936Z,948.9547
2023-04-22T01:31:52.251Z,948.9630
2023-04-22T01:32:53.549Z,948.9664
2023-04-22T01:33:54.795Z,948.9741
2023-04-22T01:34:56.059Z,948.9841
2023-04-22T01:35:57.623Z,948.9764
2023-04-22T01:36:58.910Z,948.9583
2023-04-22T01:38:00.155Z,948.9571
2023-04-22T01:39:01.392Z,948.9589
2023-04-22T01:40:02.597Z,948.9482
2023-04-22T01:41:03.860Z,948.9465
2023-04-22T01:42:05.109Z,948.9571
2023-04-22T01:43:06.325Z,948.9594
2023-04-22T01:44:07.531Z,948.9536
2023-04-22T01:45:08.754Z,948.9471
2023-04-22T01:46:10.077Z,948.9636
2023-04-22T01:47:11.297Z,948.9706
2023-04-22T01:48:12.599Z,948.9771
2023-04-22T01:49:13.835Z,948.9724
2023-04-22T01:50:15.083Z,948.9706
2023-04-22T01:51:16.284Z,948.9735
2023-04-22T01:52:17.521Z,948.9800
2023-04-22T01:53:18.750Z,948.9876
2023-04-22T01:54:19.999Z,948.9911
2023-04-22T01:55:21.228Z,949.0106
2023-04-22T01:56:22.423Z,949.0224
2023-04-22T01:57:23.658Z,949.0323
2023-04-22T01:58:24.860Z,949.0488
2023-04-22T01:59:26.489Z,949.0612
2023-04-22T02:00:27.752Z,949.0641
2023-04-22T02:01:28.965Z,949.0629
2023-04-22T02:02:30.244Z,949.0588
2023-04-22T02:03:31.543Z,949.0624
2023-04-22T02:04:32.952Z,949.0606
2023-04-22T02:05:34.162Z,949.0580
2023-04-22T02:06:35.342Z,949.0629
2023-04-22T02:07:36.666Z,949.0694
2023-04-22T02:08:37.887Z,949.0594
2023-04-22T02:09:39.246Z,949.0576
2023-04-22T02:10:40.605Z,949.0667
2023-04-22T02:11:41.800Z,949.0712
2023-04-22T02:12:43.003Z,949.0759
2023-04-22T02:13:44.198Z,949.0806
2023-04-22T02:14:45.400Z,949.0988
2023-04-22T02:15:46.707Z,949.1041
2023-04-22T02:16:48.013Z,949.1124
2023-04-22T02:17:49.228Z,949.1111
2023-04-22T02:18:50.489Z,949.1111
2023-04-22T02:19:51.684Z,949.1024
2023-04-22T02:20:52.855Z,949.0941
2023-04-22T02:21:54.083Z,949.0700
2023-04-22T02:22:55.295Z,949.0618
2023-04-22T02:23:56.506Z,949.0735
2023-04-22T02:24:57.741Z,949.1000
2023-04-22T02:25:58.962Z,949.1118
2023-04-22T02:27:00.135Z,949.1265
2023-04-22T02:28:01.343Z,949.1365
2023-04-22T02:29:02.539Z,949.1318
2023-04-22T02:30:03.782Z,949.1235
2023-04-22T02:31:05.058Z,949.1153
2023-04-22T02:32:06.224Z,949.1141
2023-04-22T02:33:07.558Z,949.1288
2023-04-22T02:34:08.835Z,949.1253
2023-04-22T02:35:10.021Z,949.1300
2023-04-22T02:36:11.222Z,949.1171
2023-04-22T02:37:12.429Z,949.0923
2023-04-22T02:38:13.659Z,949.0694
2023-04-22T02:39:14.876Z,949.0600
2023-04-22T02:40:16.102Z,949.0771
2023-04-22T02:41:17.317Z,949.0912
2023-04-22T02:42:18.499Z,949.1135
2023-04-22T02:43:19.685Z,949.1253
2023-04-22T02:44:20.908Z,949.1200
2023-04-22T02:45:22.116Z,949.1165
2023-04-22T02:46:23.327Z,949.0994
2023-04-22T02:47:24.556Z,949.1035
2023-04-22T02:48:25.748Z,949.1394
2023-04-22T02:49:27.030Z,949.1818
2023-04-22T02:50:28.241Z,949.1947
2023-04-22T02:51:29.427Z,949.1653
2023-04-22T02:52:30.632Z,949.1312
2023-04-22T02:53:31.826Z,949.1376
2023-04-22T02:54:33.045Z,949.1859
2023-04-22T02:55:34.271Z,949.2235
2023-04-22T02:56:35.466Z,949.2217
2023-04-22T02:57:36.693Z,949.2053
2023-04-22T02:58:37.896Z,949.1664
2023-04-22T02:59:39.272Z,949.1418
2023-04-22T03:00:40.570Z,949.1617
2023-04-22T03:01:41.813Z,949.2453
2023-04-22T03:02:43.431Z,949.3235
2023-04-22T03:03:44.934Z,949.3447
2023-04-22T03:04:46.204Z,949.3418
2023-04-22T03:05:47.394Z,949.3312
2023-04-22T03:06:48.594Z,949.3188
2023-04-22T03:07:49.781Z,949.3188
2023-04-22T03:08:50.985Z,949.3229
2023-04-22T03:09:52.200Z,949.3229
2023-04-22T03:10:53.408Z,949.3088
2023-04-22T03:11:54.596Z,949.2853
2023-04-22T03:12:55.792Z,949.2589
2023-04-22T03:13:57.032Z,949.2458
2023-04-22T03:14:58.247Z,949.2382
2023-04-22T03:15:59.506Z,949.2476
2023-04-22T03:17:00.726Z,949.2458
2023-04-22T03:18:01.983Z,949.2376
2023-04-22T03:19:03.212Z,949.2224
2023-04-22T03:20:04.468Z,949.2147
2023-04-22T03:21:05.693Z,949.2165
2023-04-22T03:22:06.921Z,949.2106
2023-04-22T03:23:08.155Z,949.2106
2023-04-22T03:24:09.395Z,949.2382
2023-04-22T03:25:10.638Z,949.2783
2023-04-22T03:26:11.894Z,949.2994
2023-04-22T03:27:13.135Z,949.2958
2023-04-22T03:28:14.367Z,949.2806
2023-04-22T03:29:15.609Z,949.2624
2023-04-22T03:30:16.844Z,949.2723
2023-04-22T03:31:18.095Z,949.3124
2023-04-22T03:32:19.290Z,949.3359
2023-04-22T03:33:20.594Z,949.3124
2023-04-22T03:34:21.819Z,949.2741
2023-04-22T03:35:23.057Z,949.2694
2023-04-22T03:36:24.352Z,949.2836
2023-04-22T03:37:25.616Z,949.3282
2023-04-22T03:38:26.866Z,949.3517
2023-04-22T03:39:28.119Z,949.3553
2023-04-22T03:40:29.337Z,949.3694
2023-04-22T03:41:30.579Z,949.4100
2023-04-22T03:42:31.862Z,949.4406
2023-04-22T03:43:33.093Z,949.4547
2023-04-22T03:44:34.347Z,949.4424
2023-04-22T03:45:35.639Z,949.4171
2023-04-22T03:46:36.851Z,949.3983
2023-04-22T03:47:38.478Z,949.4047
2023-04-22T03:48:39.747Z,949.4135
2023-04-22T03:49:41.118Z,949.4235
2023-04-22T03:50:42.588Z,949.4176
2023-04-22T03:51:43.837Z,949.4265
2023-04-22T03:52:45.312Z,949.4341
2023-04-22T03:53:46.570Z,949.4482
2023-04-22T03:54:47.822Z,949.4677
2023-04-22T03:55:49.063Z,949.4971
2023-04-22T03:56:50.303Z,949.5129
2023-04-22T03:57:51.552Z,949.5265
2023-04-22T03:58:52.777Z,949.5236
2023-04-22T03:59:54.038Z,949.5142
2023-04-22T04:00:55.258Z,949.5142
2023-04-22T04:01:56.619Z,949.5089
2023-04-22T04:02:57.962Z,949.5059
2023-04-22T04:03:59.576Z,949.5124
2023-04-22T04:05:01.325Z,949.5176
2023-04-22T04:06:02.655Z,949.5176
2023-04-22T04:07:03.892Z,949.5135
2023-04-22T04:08:05.097Z,949.5247
2023-04-22T04:09:06.423Z,949.5242
2023-04-22T04:10:07.636Z,949.5276
2023-04-22T04:11:08.912Z,949.5276
2023-04-22T04:12:10.376Z,949.5206
2023-04-22T04:13:11.608Z,949.5118
2023-04-22T04:14:12.869Z,949.5118
2023-04-22T04:15:14.120Z,949.5259
2023-04-22T04:16:15.432Z,949.5370
2023-04-22T04:17:16.703Z,949.5247
2023-04-22T04:18:17.976Z,949.5259
2023-04-22T04:19:19.230Z,949.5124
2023-04-22T04:20:20.464Z,949.5165
2023-04-22T04:21:21.697Z,949.5276
2023-04-22T04:22:22.953Z,949.5377
2023-04-22T04:23:24.181Z,949.5406
2023-04-22T04:24:25.425Z,949.5382
2023-04-22T04:25:26.749Z,949.5417
2023-04-22T04:26:27.991Z,949.5400
2023-04-22T04:27:29.220Z,949.5424
2023-04-22T04:28:30.515Z,949.5394
2023-04-22T04:29:31.738Z,949.5265
2023-04-22T04:30:33.632Z,949.5065
2023-04-22T04:31:35.671Z,949.4958
2023-04-22T04:32:36.930Z,949.4824
2023-04-22T04:33:38.246Z,949.4918
2023-04-22T04:34:39.534Z,949.4800
2023-04-22T04:35:40.742Z,949.4724
2023-04-22T04:36:42.003Z,949.4623
2023-04-22T04:37:43.242Z,949.4876
2023-04-22T04:38:44.472Z,949.5112
2023-04-22T04:39:45.751Z,949.5541
2023-04-22T04:40:47.020Z,949.5494
2023-04-22T04:41:48.273Z,949.5241
2023-04-22T04:42:49.514Z,949.4958
2023-04-22T04:43:50.778Z,949.5206
2023-04-22T04:44:52.011Z,949.5429
2023-04-22T04:45:53.283Z,949.5506
2023-04-22T04:46:54.651Z,949.5276
2023-04-22T04:47:55.980Z,949.4924
2023-04-22T04:48:57.229Z,949.4988
2023-04-22T04:49:58.462Z,949.5459
2023-04-22T04:50:59.699Z,949.5771
2023-04-22T04:52:01.835Z,949.5824
2023-04-22T04:53:03.170Z,949.5647
2023-04-22T04:54:04.393Z,949.5388
2023-04-22T04:55:05.640Z,949.5624
2023-04-22T04:56:06.888Z,949.5935
2023-04-22T04:57:08.153Z,949.5918
2023-04-22T04:58:09.414Z,949.5729
2023-04-22T04:59:10.663Z,949.5612
2023-04-22T05:00:11.889Z,949.5729
2023-04-22T05:01:13.184Z,949.5970
2023-04-22T05:02:14.762Z,949.6176
2023-04-22T05:03:16.276Z,949.5970
2023-04-22T05:04:17.816Z,949.5759
2023-04-22T05:05:19.203Z,949.5653
2023-04-22T05:06:20.554Z,949.5729
2023-04-22T05:07:21.785Z,949.5865
2023-04-22T05:08:23.027Z,949.5871
2023-04-22T05:09:24.261Z,949.5765
2023-04-22T05:10:25.582Z,949.5700
2023-04-22T05:11:26.848Z,949.5712
2023-04-22T05:12:28.083Z,949.5941
2023-04-22T05:13:29.323Z,949.6224
2023-04-22T05:14:30.800Z,949.6471
2023-04-22T05:15:32.059Z,949.6835
2023-04-22T05:16:33.341Z,949.7159
2023-04-22T05:17:34.632Z,949.7406
2023-04-22T05:18:35.865Z,949.7712
2023-04-22T05:19:37.234Z,949.8018
2023-04-22T05:20:38.562Z,949.8112
2023-04-22T05:21:39.889Z,949.8247
2023-04-22T05:22:41.077Z,949.8406
2023-04-22T05:23:42.318Z,949.8517
2023-04-22T05:24:43.801Z,949.8494
2023-04-22T05:25:45.004Z,949.8418
2023-04-22T05:26:46.274Z,949.8418
2023-04-22T05:27:47.567Z,949.8412
2023-04-22T05:28:48.802Z,949.8365
2023-04-22T05:29:50.056Z,949.8312
2023-04-22T05:30:51.286Z,949.8206
2023-04-22T05:31:52.865Z,949.8112
2023-04-22T05:32:54.153Z,949.8071
2023-04-22T05:33:55.468Z,949.8135
2023-04-22T05:34:56.708Z,949.8253
2023-04-22T05:35:57.944Z,949.8394
2023-04-22T05:36:59.221Z,949.8500
2023-04-22T05:38:00.462Z,949.8594
2023-04-22T05:39:01.724Z,949.8618
2023-04-22T05:40:03.080Z,949.8611
2023-04-22T05:41:04.294Z,949.8541
2023-04-22T05:42:05.541Z,949.8376
2023-04-22T05:43:06.790Z,949.8224
2023-04-22T05:44:08.030Z,949.8212
2023-04-22T05:45:09.298Z,949.8141
2023-04-22T05:46:10.539Z,949.7900
2023-04-22T05:47:12.153Z,949.7723
2023-04-22T05:48:13.349Z,949.7642
2023-04-22T05:49:14.593Z,949.7736
2023-04-22T05:50:15.827Z,949.8006
2023-04-22T05:51:17.067Z,949.8294
2023-04-22T05:52:18.339Z,949.8818
2023-04-22T05:53:19.724Z,949.9112
2023-04-22T05:54:20.953Z,949.9442
2023-04-22T05:55:22.199Z,949.9506
2023-04-22T05:56:23.463Z,949.9711
2023-04-22T05:57:24.720Z,949.9806
2023-04-22T05:58:26.009Z,949.9894
2023-04-22T05:59:27.327Z,949.9900
2023-04-22T06:00:28.550Z,949.9994
2023-04-22T06:01:29.787Z,950.0106
2023-04-22T06:02:31.182Z,950.0112
2023-04-22T06:03:32.764Z,950.0000
2023-04-22T06:04:37.175Z,949.9929
2023-04-22T06:05:35.261Z,949.9912
2023-04-22T06:06:36.738Z,949.9953
2023-04-22T06:07:37.982Z,950.0000
2023-04-22T06:08:39.250Z,950.0047
2023-04-22T06:09:40.648Z,950.0194
2023-04-22T06:10:42.049Z,950.0318
2023-04-22T06:11:43.321Z,950.0471
2023-04-22T06:12:44.573Z,950.0606
2023-04-22T06:13:45.904Z,950.0576
2023-04-22T06:14:47.131Z,950.0453
2023-04-22T06:15:48.397Z,950.0200
2023-04-22T06:16:49.654Z,949.9941
2023-04-22T06:17:50.945Z,949.9806
2023-04-22T06:18:52.214Z,949.9724
2023-04-22T06:19:53.503Z,949.9824
2023-04-22T06:20:56.092Z,949.9924
2023-04-22T06:21:57.359Z,950.0018
2023-04-22T06:22:58.631Z,950.0247
2023-04-22T06:23:59.862Z,950.0435
2023-04-22T06:25:01.144Z,950.0665
2023-04-22T06:26:02.380Z,950.0782
2023-04-22T06:27:03.584Z,950.0947
2023-04-22T06:28:04.832Z,950.1076
2023-04-22T06:29:06.089Z,950.1206
2023-04-22T06:30:07.332Z,950.1288
2023-04-22T06:31:08.602Z,950.1418
2023-04-22T06:32:09.834Z,950.1570
2023-04-22T06:33:11.092Z,950.1630
2023-04-22T06:34:12.320Z,950.1824
2023-04-22T06:35:13.608Z,950.1894
2023-04-22T06:36:14.861Z,950.1747
2023-04-22T06:37:16.086Z,950.1806
2023-04-22T06:38:17.332Z,950.1971
2023-04-22T06:39:18.815Z,950.2071
2023-04-22T06:40:20.067Z,950.2136
2023-04-22T06:41:21.302Z,950.2130
2023-04-22T06:42:22.574Z,950.2306
2023-04-22T06:43:23.829Z,950.2712
2023-04-22T06:44:25.134Z,950.2806
2023-04-22T06:45:26.392Z,950.2911
2023-04-22T06:46:27.676Z,950.2865
2023-04-22T06:47:29.041Z,950.3129
2023-04-22T06:48:30.328Z,950.3006
2023-04-22T06:49:31.517Z,950.2947
2023-04-22T06:50:32.766Z,950.2877
2023-04-22T06:51:34.005Z,950.3018
2023-04-22T06:52:35.274Z,950.3135
2023-04-22T06:53:36.537Z,950.2818
2023-04-22T06:54:37.805Z,950.2776
2023-04-22T06:55:39.025Z,950.2930
2023-04-22T06:56:40.259Z,950.3065
2023-04-22T06:57:41.569Z,950.3176
2023-04-22T06:58:42.840Z,950.3353
2023-04-22T06:59:46.728Z,950.3188
2023-04-22T07:00:44.775Z,950.3225
2023-04-22T07:01:46.029Z,950.3165
2023-04-22T07:02:47.298Z,950.3018
2023-04-22T07:03:48.679Z,950.3029
2023-04-22T07:04:49.910Z,950.3241
2023-04-22T07:05:51.181Z,950.3171
2023-04-22T07:06:52.482Z,950.3329
2023-04-22T07:07:53.696Z,950.3318
2023-04-22T07:08:54.957Z,950.3400
2023-04-22T07:09:56.168Z,950.3547
2023-04-22T07:10:57.429Z,950.3706
2023-04-22T07:11:58.704Z,950.3647
2023-04-22T07:12:59.995Z,950.3541
2023-04-22T07:14:01.232Z,950.3741
2023-04-22T07:15:02.457Z,950.3383
2023-04-22T07:16:03.692Z,950.3360
2023-04-22T07:17:04.982Z,950.3394
2023-04-22T07:18:06.221Z,950.3289
2023-04-22T07:19:07.454Z,950.3300
2023-04-22T07:20:08.710Z,950.3188
2023-04-22T07:21:10.056Z,950.3294
2023-04-22T07:22:11.252Z,950.3400
2023-04-22T07:23:12.510Z,950.3470
2023-04-22T07:24:13.746Z,950.3353
2023-04-22T07:25:15.006Z,950.3582
2023-04-22T07:26:16.248Z,950.3712
2023-04-22T07:27:17.488Z,950.3870
2023-04-22T07:28:18.724Z,950.3818
2023-04-22T07:29:20.235Z,950.4111
2023-04-22T07:30:21.499Z,950.4164
2023-04-22T07:31:22.814Z,950.3859
2023-04-22T07:32:24.065Z,950.4035
2023-04-22T07:33:25.278Z,950.4324
2023-04-22T07:34:26.537Z,950.4583
2023-04-22T07:35:27.765Z,950.4518
2023-04-22T07:36:29.055Z,950.4459
2023-04-22T07:37:30.307Z,950.4183
2023-04-22T07:38:31.567Z,950.3988
2023-04-22T07:39:32.814Z,950.3735
2023-04-22T07:40:34.075Z,950.3724
2023-04-22T07:41:35.320Z,950.3682
2023-04-22T07:42:36.589Z,950.3288
2023-04-22T07:43:37.832Z,950.3247
2023-04-22T07:44:39.608Z,950.3276
2023-04-22T07:45:40.990Z,950.3524
2023-04-22T07:46:42.228Z,950.3459
2023-04-22T07:47:43.472Z,950.2870
2023-04-22T07:48:44.733Z,950.2877
2023-04-22T07:49:45.973Z,950.3229
2023-04-22T07:50:47.223Z,950.3100
2023-04-22T07:51:48.463Z,950.3300
2023-04-22T07:52:49.677Z,950.3417
2023-04-22T07:53:51.113Z,950.3564
2023-04-22T07:54:52.353Z,950.3347
2023-04-22T07:55:53.613Z,950.3365
2023-04-22T07:56:54.847Z,950.3224
2023-04-22T07:57:56.081Z,950.3423
2023-04-22T07:58:57.321Z,950.3882
2023-04-22T07:59:58.579Z,950.4070
2023-04-22T08:00:59.853Z,950.4371
2023-04-22T08:02:01.149Z,950.4400
2023-04-22T08:03:02.472Z,950.4506
2023-04-22T08:04:03.972Z,950.4918
2023-04-22T08:05:05.426Z,950.4653
2023-04-22T08:06:06.644Z,950.4476
2023-04-22T08:07:26.447Z,950.4724
2023-04-22T08:08:07.935Z,950.4680
2023-04-22T08:09:09.228Z,950.5059
2023-04-22T08:10:10.468Z,950.4935
2023-04-22T08:11:11.956Z,950.4706
2023-04-22T08:12:13.192Z,950.4212
2023-04-22T08:13:15.826Z,950.3847
2023-04-22T08:14:15.449Z,950.3256
2023-04-22T08:15:16.699Z,950.3218
2023-04-22T08:16:18.228Z,950.3383
2023-04-22T08:17:19.425Z,950.3312
2023-04-22T08:18:20.660Z,950.3371
2023-04-22T08:19:21.922Z,950.3665
2023-04-22T08:20:23.189Z,950.3530
2023-04-22T08:21:24.445Z,950.3529
2023-04-22T08:22:25.711Z,950.3530
2023-04-22T08:23:26.946Z,950.3259
2023-04-22T08:24:28.215Z,950.3342
2023-04-22T08:25:29.490Z,950.3306
2023-04-22T08:26:30.759Z,950.3359
2023-04-22T08:27:32.011Z,950.3289
2023-04-22T08:28:33.282Z,950.3112
2023-04-22T08:29:34.547Z,950.2982
2023-04-22T08:30:35.795Z,950.3029
2023-04-22T08:31:37.319Z,950.2958
2023-04-22T08:32:38.585Z,950.2877
2023-04-22T08:33:39.859Z,950.2988
2023-04-22T08:34:41.611Z,950.3188
2023-04-22T08:35:42.850Z,950.3194
2023-04-22T08:36:44.151Z,950.3271
2023-04-22T08:37:45.408Z,950.3306
2023-04-22T08:38:48.299Z,950.3430
2023-04-22T08:39:47.654Z,950.3513
2023-04-22T08:40:48.913Z,950.3559
2023-04-22T08:41:50.263Z,950.3671
2023-04-22T08:42:51.484Z,950.3582
2023-04-22T08:43:52.759Z,950.3776
2023-04-22T08:44:54.012Z,950.3947
2023-04-22T08:45:55.253Z,950.3788
2023-04-22T08:46:56.671Z,950.3788
2023-04-22T08:47:58.059Z,950.3776
2023-04-22T08:48:59.306Z,950.3824
2023-04-22T08:50:00.566Z,950.3771
2023-04-22T08:51:01.834Z,950.3829
2023-04-22T08:52:03.086Z,950.3588
2023-04-22T08:53:04.357Z,950.3447
2023-04-22T08:54:05.641Z,950.3011
2023-04-22T08:55:06.872Z,950.2765
2023-04-22T08:56:08.349Z,950.2665
2023-04-22T08:57:09.643Z,950.2406
2023-04-22T08:58:11.608Z,950.2088
2023-04-22T08:59:12.854Z,950.1782
2023-04-22T09:00:14.151Z,950.1306
2023-04-22T09:01:15.407Z,950.1094
2023-04-22T09:02:16.656Z,950.0900
2023-04-22T09:03:17.982Z,950.0694
2023-04-22T09:04:19.334Z,950.0612
2023-04-22T09:05:20.609Z,950.0647
2023-04-22T09:06:21.858Z,950.0412
2023-04-22T09:07:23.104Z,950.0353
2023-04-22T09:08:24.385Z,950.0400
2023-04-22T09:09:25.611Z,950.0511
2023-04-22T09:10:26.845Z,950.0312
2023-04-22T09:11:28.096Z,950.0341
2023-04-22T09:12:29.371Z,950.0224
2023-04-22T09:13:30.648Z,950.0076
2023-04-22T09:14:31.850Z,949.9829
2023-04-22T09:15:33.124Z,949.9688
2023-04-22T09:16:34.518Z,949.9494
2023-04-22T09:17:35.841Z,949.9406
2023-04-22T09:18:37.078Z,949.9424
2023-04-22T09:19:38.510Z,949.9023
2023-04-22T09:20:39.875Z,949.8794
2023-04-22T09:21:41.113Z,949.8641
2023-04-22T09:22:42.366Z,949.8459
2023-04-22T09:23:43.621Z,949.8276
2023-04-22T09:24:44.906Z,949.8153
2023-04-22T09:25:46.154Z,949.7958
2023-04-22T09:26:47.406Z,949.8100
2023-04-22T09:27:49.646Z,949.8058
2023-04-22T09:28:51.156Z,949.8000
2023-04-22T09:29:52.401Z,949.8124
2023-04-22T09:30:53.651Z,949.7971
2023-04-22T09:31:55.008Z,949.7817
2023-04-22T09:32:56.336Z,949.7553
2023-04-22T09:33:57.705Z,949.7524
2023-04-22T09:34:58.949Z,949.7471
2023-04-22T09:36:00.554Z,949.7512
2023-04-22T09:37:01.807Z,949.7676
2023-04-22T09:38:03.095Z,949.7376
2023-04-22T09:39:04.356Z,949.7000
2023-04-22T09:40:05.578Z,949.6776
2023-04-22T09:41:06.896Z,949.6747
2023-04-22T09:42:08.131Z,949.6758
2023-04-22T09:43:09.422Z,949.7047
2023-04-22T09:44:10.705Z,949.7447
2023-04-22T09:45:11.967Z,949.7724
2023-04-22T09:46:13.274Z,949.7753
2023-04-22T09:47:14.468Z,949.7682
2023-04-22T09:48:15.745Z,949.7624
2023-04-22T09:49:17.405Z,949.7634
2023-04-22T09:50:18.776Z,949.7736
2023-04-22T09:51:20.099Z,949.7947
2023-04-22T09:52:21.373Z,949.8047
2023-04-22T09:53:22.665Z,949.7770
2023-04-22T09:54:23.940Z,949.7894
2023-04-22T09:55:25.221Z,949.7512
2023-04-22T09:56:26.535Z,949.7165
2023-04-22T09:57:27.822Z,949.6447
2023-04-22T09:58:29.098Z,949.6047
2023-04-22T09:59:30.413Z,949.5865
2023-04-22T10:00:31.766Z,949.5740
2023-04-22T10:01:33.099Z,949.5706
2023-04-22T10:02:34.440Z,949.5506
2023-04-22T10:03:35.765Z,949.5394
2023-04-22T10:04:37.027Z,949.5500
2023-04-22T10:05:38.325Z,949.5682
2023-04-22T10:06:39.613Z,949.5806
2023-04-22T10:07:40.917Z,949.6077
2023-04-22T10:08:42.229Z,949.6288
2023-04-22T10:09:43.691Z,949.6570
2023-04-22T10:10:45.030Z,949.6829
2023-04-22T10:11:46.364Z,949.7112
2023-04-22T10:12:47.658Z,949.7206
2023-04-22T10:13:48.946Z,949.7276
2023-04-22T10:14:54.094Z,949.7181
2023-04-22T10:15:55.394Z,949.6918
2023-04-22T10:16:56.824Z,949.6635
2023-04-22T10:17:58.160Z,949.6371
2023-04-22T10:18:59.410Z,949.6406
2023-04-22T10:20:00.692Z,949.6271
2023-04-22T10:21:03.586Z,949.6141
2023-04-22T10:22:04.894Z,949.5806
2023-04-22T10:23:06.248Z,949.5600
2023-04-22T10:24:07.519Z,949.5558
2023-04-22T10:25:08.795Z,949.5712
2023-04-22T10:26:10.064Z,949.5759
2023-04-22T10:27:11.392Z,949.5859
2023-04-22T10:28:12.702Z,949.5889
2023-04-22T10:29:14.080Z,949.5829
2023-04-22T10:30:15.374Z,949.5506
2023-04-22T10:31:16.666Z,949.5377
2023-04-22T10:32:17.970Z,949.5035
2023-04-22T10:33:19.242Z,949.4947
2023-04-22T10:34:20.514Z,949.5047
2023-04-22T10:35:21.862Z,949.5076
2023-04-22T10:36:23.141Z,949.4806
2023-04-22T10:37:24.442Z,949.4312
2023-04-22T10:38:25.721Z,949.3812
2023-04-22T10:39:27.063Z,949.3624
2023-04-22T10:40:28.388Z,949.3653
2023-04-22T10:42:32.984Z,949.3658
2023-04-22T10:42:32.984Z,949.3662
2023-04-22T10:43:34.314Z,949.3647
2023-04-22T10:44:35.606Z,949.3000
2023-04-22T10:45:36.947Z,949.3688
2023-04-22T10:46:38.415Z,949.3453
2023-04-22T10:47:39.819Z,949.4153
2023-04-22T10:48:41.100Z,949.4442
2023-04-22T10:49:42.398Z,949.4829
2023-04-22T10:50:43.692Z,949.4829
2023-04-22T10:51:44.958Z,949.4659
2023-04-22T10:52:46.242Z,949.4670
2023-04-22T10:53:47.535Z,949.4306
2023-04-22T10:54:48.831Z,949.4147
2023-04-22T10:55:50.151Z,949.3800
2023-04-22T10:56:57.648Z,949.3635
2023-04-22T10:57:51.494Z,949.3720
2023-04-22T10:58:52.787Z,949.3912
2023-04-22T10:59:54.080Z,949.3641
2023-04-22T11:00:55.358Z,949.3712
2023-04-22T11:01:56.703Z,949.3782
2023-04-22T11:02:58.153Z,949.4600
2023-04-22T11:03:59.549Z,949.5182
2023-04-22T11:05:00.817Z,949.4877
2023-04-22T11:06:02.099Z,949.4665
2023-04-22T11:07:03.396Z,949.4982
2023-04-22T11:08:04.730Z,949.5435
2023-04-22T11:09:06.020Z,949.5441
2023-04-22T11:10:07.316Z,949.5082
2023-04-22T11:11:08.607Z,949.4600
2023-04-22T11:12:09.898Z,949.4730
2023-04-22T11:13:11.176Z,949.5124
2023-04-22T11:14:12.541Z,949.5065
2023-04-22T11:15:13.844Z,949.5424
2023-04-22T11:16:15.139Z,949.4918
2023-04-22T11:17:16.402Z,949.5041
2023-04-22T11:18:17.702Z,949.5541
2023-04-22T11:19:18.995Z,949.5541
2023-04-22T11:20:20.328Z,949.5482
2023-04-22T11:21:21.651Z,949.5359
2023-04-22T11:22:22.937Z,949.5888
2023-04-22T11:23:24.271Z,949.5723
2023-04-22T11:24:25.599Z,949.5700
2023-04-22T11:25:26.937Z,949.5600
2023-04-22T11:26:28.175Z,949.5776
2023-04-22T11:27:29.452Z,949.6053
2023-04-22T11:28:30.765Z,949.6541
2023-04-22T11:29:32.056Z,949.6218
2023-04-22T11:30:33.344Z,949.6141
2023-04-22T11:31:34.690Z,949.6082
2023-04-22T11:32:36.007Z,949.5688
2023-04-22T11:33:37.318Z,949.5541
2023-04-22T11:34:38.640Z,949.5270
2023-04-22T11:35:39.924Z,949.5406
2023-04-22T11:36:41.182Z,949.6029
2023-04-22T11:37:42.490Z,949.5782
2023-04-22T11:38:43.769Z,949.5394
2023-04-22T11:40:07.762Z,949.6094
2023-04-22T11:40:46.593Z,949.6100
2023-04-22T11:41:48.553Z,949.6389
2023-04-22T11:42:49.848Z,949.5571
2023-04-22T11:43:51.289Z,949.5941
2023-04-22T11:44:52.591Z,949.5635
2023-04-22T11:45:54.068Z,949.5400
2023-04-22T11:46:55.315Z,949.5424
2023-04-22T11:47:56.994Z,949.4924
2023-04-22T11:48:58.284Z,949.5118
2023-04-22T11:49:59.621Z,949.5029
2023-04-22T11:51:00.907Z,949.5188
2023-04-22T11:52:02.211Z,949.4829
2023-04-22T11:53:03.493Z,949.5435
2023-04-22T11:54:04.759Z,949.5500
2023-04-22T11:55:06.008Z,949.5160
2023-04-22T11:56:07.304Z,949.4800
2023-04-22T11:57:08.622Z,949.4482
2023-04-22T11:58:09.901Z,949.3735
2023-04-22T11:59:11.149Z,949.3470
2023-04-22T12:00:12.455Z,949.4265